Axtell, Texas
Current Conditions -  °F | °C
As of 9:55 AM on Friday 19 Dec 2014 (Local Time) from KCNW Reporting Station
Haze Haze  
Wind Chill: 45°   Ceiling: 400
Heat Index: 48°   Visibility: 3mi
Dew Point: 46°   Wind: 8mph
Humidity: 93%   Direction: 360°N
Pressure: 30.18"   Gusts: NA
Location:  31.66°N, 96.97°W
Report Text: KCNW 191555Z 36007KT 3SM BR OVC004 09/08 A3018
Loading
Personal Weather Stations






























Interactive Weather Map New forecast layout! Learn more

10-Day Weather Forecast

Advertisements
Track Severe Weather on mobile